sensor_id;sensor_type;location;lat;lon;timestamp;P1;durP1;ratioP1;P2;durP2;ratioP2
9815;SDS011;4947;44.526;11.360;2023-04-03T00:00:19;3.75;;;3.00;;
9815;SDS011;4947;44.526;11.360;2023-04-03T00:02:48;4.07;;;2.72;;
9815;SDS011;4947;44.526;11.360;2023-04-03T00:05:18;3.15;;;2.85;;
9815;SDS011;4947;44.526;11.360;2023-04-03T00:07:46;3.83;;;2.83;;
9815;SDS011;4947;44.526;11.360;2023-04-03T00:10:17;3.63;;;2.45;;
9815;SDS011;4947;44.526;11.360;2023-04-03T00:12:45;3.58;;;2.97;;
9815;SDS011;4947;44.526;11.360;2023-04-03T00:15:13;4.15;;;2.92;;
9815;SDS011;4947;44.526;11.360;2023-04-03T00:17:40;3.55;;;2.90;;
9815;SDS011;4947;44.526;11.360;2023-04-03T00:20:08;3.70;;;2.80;;
9815;SDS011;4947;44.526;11.360;2023-04-03T00:22:38;4.18;;;3.25;;
9815;SDS011;4947;44.526;11.360;2023-04-03T00:25:06;5.05;;;2.83;;
9815;SDS011;4947;44.526;11.360;2023-04-03T00:27:35;3.05;;;2.67;;
9815;SDS011;4947;44.526;11.360;2023-04-03T00:30:04;4.55;;;3.10;;
9815;SDS011;4947;44.526;11.360;2023-04-03T00:32:32;3.88;;;2.90;;
9815;SDS011;4947;44.526;11.360;2023-04-03T00:35:00;6.07;;;3.38;;
9815;SDS011;4947;44.526;11.360;2023-04-03T00:37:27;3.00;;;2.70;;
9815;SDS011;4947;44.526;11.360;2023-04-03T00:39:56;4.40;;;3.08;;
9815;SDS011;4947;44.526;11.360;2023-04-03T00:42:23;3.35;;;2.97;;
9815;SDS011;4947;44.526;11.360;2023-04-03T00:47:55;3.08;;;2.78;;
9815;SDS011;4947;44.526;11.360;2023-04-03T00:50:24;3.95;;;2.63;;
9815;SDS011;4947;44.526;11.360;2023-04-03T00:52:53;3.85;;;3.08;;
9815;SDS011;4947;44.526;11.360;2023-04-03T00:55:23;3.95;;;3.17;;
9815;SDS011;4947;44.526;11.360;2023-04-03T00:57:51;5.72;;;2.95;;
9815;SDS011;4947;44.526;11.360;2023-04-03T01:00:19;3.35;;;3.05;;
9815;SDS011;4947;44.526;11.360;2023-04-03T01:02:49;5.93;;;3.15;;
9815;SDS011;4947;44.526;11.360;2023-04-03T01:05:17;3.60;;;3.13;;
9815;SDS011;4947;44.526;11.360;2023-04-03T01:07:47;3.75;;;3.00;;
9815;SDS011;4947;44.526;11.360;2023-04-03T01:10:16;4.15;;;3.15;;
9815;SDS011;4947;44.526;11.360;2023-04-03T01:12:48;6.35;;;3.15;;
9815;SDS011;4947;44.526;11.360;2023-04-03T01:15:18;5.00;;;3.22;;
9815;SDS011;4947;44.526;11.360;2023-04-03T01:17:47;4.07;;;2.88;;
9815;SDS011;4947;44.526;11.360;2023-04-03T01:23:14;3.40;;;2.65;;
9815;SDS011;4947;44.526;11.360;2023-04-03T01:25:51;8.57;;;3.42;;
9815;SDS011;4947;44.526;11.360;2023-04-03T01:28:23;4.72;;;3.03;;
9815;SDS011;4947;44.526;11.360;2023-04-03T01:30:53;2.97;;;2.78;;
9815;SDS011;4947;44.526;11.360;2023-04-03T01:33:29;4.80;;;3.58;;
9815;SDS011;4947;44.526;11.360;2023-04-03T01:35:56;6.38;;;3.20;;
9815;SDS011;4947;44.526;11.360;2023-04-03T01:38:24;5.35;;;3.17;;
9815;SDS011;4947;44.526;11.360;2023-04-03T01:40:52;5.53;;;3.53;;
9815;SDS011;4947;44.526;11.360;2023-04-03T01:43:20;4.28;;;3.22;;
9815;SDS011;4947;44.526;11.360;2023-04-03T01:45:47;3.58;;;2.78;;
9815;SDS011;4947;44.526;11.360;2023-04-03T01:48:15;4.47;;;3.38;;
9815;SDS011;4947;44.526;11.360;2023-04-03T01:50:44;3.58;;;3.00;;
9815;SDS011;4947;44.526;11.360;2023-04-03T01:53:13;4.28;;;3.05;;
9815;SDS011;4947;44.526;11.360;2023-04-03T01:55:42;4.30;;;3.60;;
9815;SDS011;4947;44.526;11.360;2023-04-03T01:58:09;5.82;;;3.50;;
9815;SDS011;4947;44.526;11.360;2023-04-03T02:00:37;5.47;;;3.22;;
9815;SDS011;4947;44.526;11.360;2023-04-03T02:03:04;3.42;;;3.03;;
9815;SDS011;4947;44.526;11.360;2023-04-03T02:05:32;6.07;;;3.30;;
9815;SDS011;4947;44.526;11.360;2023-04-03T02:08:01;4.18;;;3.53;;
9815;SDS011;4947;44.526;11.360;2023-04-03T02:10:28;4.00;;;3.28;;
9815;SDS011;4947;44.526;11.360;2023-04-03T02:12:56;3.65;;;3.35;;
9815;SDS011;4947;44.526;11.360;2023-04-03T02:15:23;5.70;;;3.10;;
9815;SDS011;4947;44.526;11.360;2023-04-03T02:17:51;4.82;;;3.42;;
9815;SDS011;4947;44.526;11.360;2023-04-03T02:20:19;5.38;;;3.38;;
9815;SDS011;4947;44.526;11.360;2023-04-03T02:22:46;3.80;;;3.30;;
9815;SDS011;4947;44.526;11.360;2023-04-03T02:25:16;5.60;;;3.45;;
9815;SDS011;4947;44.526;11.360;2023-04-03T02:27:44;6.07;;;3.50;;
9815;SDS011;4947;44.526;11.360;2023-04-03T02:30:12;6.45;;;3.60;;
9815;SDS011;4947;44.526;11.360;2023-04-03T02:32:41;4.28;;;3.38;;
9815;SDS011;4947;44.526;11.360;2023-04-03T02:35:09;4.70;;;3.30;;
9815;SDS011;4947;44.526;11.360;2023-04-03T02:37:37;4.47;;;3.38;;
9815;SDS011;4947;44.526;11.360;2023-04-03T02:40:05;4.10;;;3.33;;
9815;SDS011;4947;44.526;11.360;2023-04-03T02:42:34;4.57;;;3.90;;
9815;SDS011;4947;44.526;11.360;2023-04-03T02:45:01;5.80;;;3.40;;
9815;SDS011;4947;44.526;11.360;2023-04-03T02:47:29;5.57;;;3.35;;
9815;SDS011;4947;44.526;11.360;2023-04-03T02:49:57;4.15;;;3.75;;
9815;SDS011;4947;44.526;11.360;2023-04-03T02:52:25;5.28;;;3.47;;
9815;SDS011;4947;44.526;11.360;2023-04-03T02:54:57;4.85;;;3.40;;
9815;SDS011;4947;44.526;11.360;2023-04-03T02:57:26;3.97;;;3.47;;
9815;SDS011;4947;44.526;11.360;2023-04-03T02:59:55;5.32;;;3.58;;
9815;SDS011;4947;44.526;11.360;2023-04-03T03:02:22;3.72;;;3.40;;
9815;SDS011;4947;44.526;11.360;2023-04-03T03:04:50;5.47;;;3.20;;
9815;SDS011;4947;44.526;11.360;2023-04-03T03:07:17;4.75;;;3.38;;
9815;SDS011;4947;44.526;11.360;2023-04-03T03:09:45;4.93;;;3.53;;
9815;SDS011;4947;44.526;11.360;2023-04-03T03:12:12;5.00;;;3.20;;
9815;SDS011;4947;44.526;11.360;2023-04-03T03:14:39;4.07;;;3.25;;
9815;SDS011;4947;44.526;11.360;2023-04-03T03:17:09;4.57;;;2.95;;
9815;SDS011;4947;44.526;11.360;2023-04-03T03:19:36;4.75;;;3.13;;
9815;SDS011;4947;44.526;11.360;2023-04-03T03:22:04;4.55;;;3.25;;
9815;SDS011;4947;44.526;11.360;2023-04-03T03:24:31;4.85;;;3.17;;
9815;SDS011;4947;44.526;11.360;2023-04-03T03:26:59;4.32;;;3.17;;
9815;SDS011;4947;44.526;11.360;2023-04-03T03:29:26;4.57;;;3.55;;
9815;SDS011;4947;44.526;11.360;2023-04-03T03:31:54;4.45;;;4.00;;
9815;SDS011;4947;44.526;11.360;2023-04-03T03:34:23;3.90;;;3.10;;
9815;SDS011;4947;44.526;11.360;2023-04-03T03:36:51;4.55;;;3.40;;
9815;SDS011;4947;44.526;11.360;2023-04-03T03:39:18;4.00;;;3.40;;
9815;SDS011;4947;44.526;11.360;2023-04-03T03:41:49;5.20;;;3.65;;
9815;SDS011;4947;44.526;11.360;2023-04-03T03:44:18;3.60;;;3.28;;
9815;SDS011;4947;44.526;11.360;2023-04-03T03:46:45;3.20;;;2.90;;
9815;SDS011;4947;44.526;11.360;2023-04-03T03:49:13;5.70;;;2.88;;
9815;SDS011;4947;44.526;11.360;2023-04-03T03:51:42;5.43;;;3.13;;
9815;SDS011;4947;44.526;11.360;2023-04-03T03:54:09;4.82;;;3.45;;
9815;SDS011;4947;44.526;11.360;2023-04-03T03:56:37;4.68;;;3.20;;
9815;SDS011;4947;44.526;11.360;2023-04-03T03:59:05;3.97;;;3.22;;
9815;SDS011;4947;44.526;11.360;2023-04-03T04:01:32;4.90;;;3.15;;
9815;SDS011;4947;44.526;11.360;2023-04-03T04:04:00;5.90;;;3.28;;
9815;SDS011;4947;44.526;11.360;2023-04-03T04:06:27;5.68;;;3.40;;
9815;SDS011;4947;44.526;11.360;2023-04-03T04:08:56;4.28;;;3.10;;
9815;SDS011;4947;44.526;11.360;2023-04-03T04:11:27;6.25;;;3.60;;
9815;SDS011;4947;44.526;11.360;2023-04-03T04:13:54;7.13;;;3.00;;
9815;SDS011;4947;44.526;11.360;2023-04-03T04:16:22;4.47;;;3.33;;
9815;SDS011;4947;44.526;11.360;2023-04-03T04:18:49;5.55;;;3.50;;
9815;SDS011;4947;44.526;11.360;2023-04-03T04:21:17;5.35;;;4.00;;
9815;SDS011;4947;44.526;11.360;2023-04-03T04:23:44;6.32;;;4.22;;
9815;SDS011;4947;44.526;11.360;2023-04-03T04:26:13;5.28;;;3.50;;
9815;SDS011;4947;44.526;11.360;2023-04-03T04:28:41;5.88;;;4.20;;
9815;SDS011;4947;44.526;11.360;2023-04-03T04:31:08;10.32;;;3.72;;
9815;SDS011;4947;44.526;11.360;2023-04-03T04:33:36;10.48;;;4.32;;
9815;SDS011;4947;44.526;11.360;2023-04-03T04:36:03;6.55;;;3.78;;
9815;SDS011;4947;44.526;11.360;2023-04-03T04:38:31;4.00;;;3.45;;
9815;SDS011;4947;44.526;11.360;2023-04-03T04:40:59;10.63;;;4.32;;
9815;SDS011;4947;44.526;11.360;2023-04-03T04:43:28;6.20;;;4.03;;
9815;SDS011;4947;44.526;11.360;2023-04-03T04:46:03;7.25;;;3.92;;
9815;SDS011;4947;44.526;11.360;2023-04-03T04:48:31;4.60;;;3.38;;
9815;SDS011;4947;44.526;11.360;2023-04-03T04:50:58;5.30;;;3.70;;
9815;SDS011;4947;44.526;11.360;2023-04-03T04:53:26;5.65;;;3.53;;
9815;SDS011;4947;44.526;11.360;2023-04-03T04:55:54;4.38;;;3.53;;
9815;SDS011;4947;44.526;11.360;2023-04-03T04:58:21;7.35;;;3.35;;
9815;SDS011;4947;44.526;11.360;2023-04-03T05:00:50;5.82;;;3.95;;
9815;SDS011;4947;44.526;11.360;2023-04-03T05:03:25;8.30;;;4.00;;
9815;SDS011;4947;44.526;11.360;2023-04-03T05:05:53;5.35;;;3.65;;
9815;SDS011;4947;44.526;11.360;2023-04-03T05:08:20;4.63;;;3.45;;
9815;SDS011;4947;44.526;11.360;2023-04-03T05:10:48;6.55;;;4.10;;
9815;SDS011;4947;44.526;11.360;2023-04-03T05:13:16;7.47;;;3.80;;
9815;SDS011;4947;44.526;11.360;2023-04-03T05:15:43;6.47;;;4.38;;
9815;SDS011;4947;44.526;11.360;2023-04-03T05:18:13;4.93;;;3.92;;
9815;SDS011;4947;44.526;11.360;2023-04-03T05:20:40;6.20;;;3.47;;
9815;SDS011;4947;44.526;11.360;2023-04-03T05:23:11;7.22;;;4.25;;
9815;SDS011;4947;44.526;11.360;2023-04-03T05:25:38;6.63;;;4.25;;
9815;SDS011;4947;44.526;11.360;2023-04-03T05:28:06;7.28;;;4.18;;
9815;SDS011;4947;44.526;11.360;2023-04-03T05:30:34;4.57;;;3.50;;
9815;SDS011;4947;44.526;11.360;2023-04-03T05:33:02;13.13;;;5.05;;
9815;SDS011;4947;44.526;11.360;2023-04-03T05:35:32;9.43;;;4.15;;
9815;SDS011;4947;44.526;11.360;2023-04-03T05:37:59;4.20;;;3.78;;
9815;SDS011;4947;44.526;11.360;2023-04-03T05:40:27;9.25;;;4.88;;
9815;SDS011;4947;44.526;11.360;2023-04-03T05:42:54;14.48;;;5.43;;
9815;SDS011;4947;44.526;11.360;2023-04-03T05:45:22;11.13;;;5.32;;
9815;SDS011;4947;44.526;11.360;2023-04-03T05:47:49;5.03;;;4.30;;
9815;SDS011;4947;44.526;11.360;2023-04-03T05:50:17;6.68;;;5.25;;
9815;SDS011;4947;44.526;11.360;2023-04-03T05:52:47;5.30;;;4.30;;
9815;SDS011;4947;44.526;11.360;2023-04-03T05:55:16;8.73;;;5.03;;
9815;SDS011;4947;44.526;11.360;2023-04-03T05:57:44;8.70;;;4.70;;
9815;SDS011;4947;44.526;11.360;2023-04-03T06:00:11;6.57;;;4.80;;
9815;SDS011;4947;44.526;11.360;2023-04-03T06:02:41;14.20;;;5.68;;
9815;SDS011;4947;44.526;11.360;2023-04-03T06:05:10;10.40;;;5.57;;
9815;SDS011;4947;44.526;11.360;2023-04-03T06:07:38;9.38;;;5.47;;
9815;SDS011;4947;44.526;11.360;2023-04-03T06:10:09;8.57;;;5.95;;
9815;SDS011;4947;44.526;11.360;2023-04-03T06:12:38;7.13;;;4.97;;
9815;SDS011;4947;44.526;11.360;2023-04-03T06:15:06;9.75;;;5.30;;
9815;SDS011;4947;44.526;11.360;2023-04-03T06:17:36;10.73;;;5.43;;
9815;SDS011;4947;44.526;11.360;2023-04-03T06:20:05;11.63;;;6.47;;
9815;SDS011;4947;44.526;11.360;2023-04-03T06:22:33;5.95;;;5.07;;
9815;SDS011;4947;44.526;11.360;2023-04-03T06:25:00;9.35;;;5.75;;
9815;SDS011;4947;44.526;11.360;2023-04-03T06:27:29;9.40;;;5.43;;
9815;SDS011;4947;44.526;11.360;2023-04-03T06:29:57;8.07;;;5.22;;
9815;SDS011;4947;44.526;11.360;2023-04-03T06:32:25;6.30;;;5.40;;
9815;SDS011;4947;44.526;11.360;2023-04-03T06:34:52;9.38;;;6.13;;
9815;SDS011;4947;44.526;11.360;2023-04-03T06:37:21;8.13;;;5.90;;
9815;SDS011;4947;44.526;11.360;2023-04-03T06:39:51;9.48;;;5.75;;
9815;SDS011;4947;44.526;11.360;2023-04-03T06:42:18;8.05;;;6.00;;
9815;SDS011;4947;44.526;11.360;2023-04-03T06:44:50;10.50;;;6.88;;
9815;SDS011;4947;44.526;11.360;2023-04-03T06:47:18;8.73;;;5.95;;
9815;SDS011;4947;44.526;11.360;2023-04-03T06:49:46;8.40;;;6.35;;
9815;SDS011;4947;44.526;11.360;2023-04-03T06:52:13;11.50;;;6.65;;
9815;SDS011;4947;44.526;11.360;2023-04-03T06:54:41;8.88;;;7.00;;
9815;SDS011;4947;44.526;11.360;2023-04-03T06:57:09;11.20;;;6.82;;
9815;SDS011;4947;44.526;11.360;2023-04-03T06:59:36;7.65;;;6.30;;
9815;SDS011;4947;44.526;11.360;2023-04-03T07:02:05;13.30;;;6.75;;
9815;SDS011;4947;44.526;11.360;2023-04-03T07:04:33;8.73;;;6.00;;
9815;SDS011;4947;44.526;11.360;2023-04-03T07:07:01;9.82;;;6.60;;
9815;SDS011;4947;44.526;11.360;2023-04-03T07:09:30;8.95;;;5.90;;
9815;SDS011;4947;44.526;11.360;2023-04-03T07:11:59;7.95;;;6.15;;
9815;SDS011;4947;44.526;11.360;2023-04-03T07:14:27;10.18;;;6.53;;
9815;SDS011;4947;44.526;11.360;2023-04-03T07:16:54;9.13;;;6.10;;
9815;SDS011;4947;44.526;11.360;2023-04-03T07:19:23;9.57;;;6.97;;
9815;SDS011;4947;44.526;11.360;2023-04-03T07:21:52;9.07;;;6.90;;
9815;SDS011;4947;44.526;11.360;2023-04-03T07:24:20;6.65;;;5.78;;
9815;SDS011;4947;44.526;11.360;2023-04-03T07:26:48;9.70;;;6.15;;
9815;SDS011;4947;44.526;11.360;2023-04-03T07:29:16;8.30;;;6.03;;
9815;SDS011;4947;44.526;11.360;2023-04-03T07:31:43;10.40;;;6.60;;
9815;SDS011;4947;44.526;11.360;2023-04-03T07:34:11;7.13;;;5.88;;
9815;SDS011;4947;44.526;11.360;2023-04-03T07:36:40;7.13;;;6.15;;
9815;SDS011;4947;44.526;11.360;2023-04-03T07:39:11;8.45;;;6.60;;
9815;SDS011;4947;44.526;11.360;2023-04-03T07:41:39;7.93;;;5.97;;
9815;SDS011;4947;44.526;11.360;2023-04-03T07:44:06;9.15;;;6.28;;
9815;SDS011;4947;44.526;11.360;2023-04-03T07:46:34;7.95;;;6.38;;
9815;SDS011;4947;44.526;11.360;2023-04-03T07:49:02;12.00;;;6.60;;
9815;SDS011;4947;44.526;11.360;2023-04-03T07:51:30;9.95;;;6.53;;
9815;SDS011;4947;44.526;11.360;2023-04-03T07:53:58;11.35;;;7.03;;
9815;SDS011;4947;44.526;11.360;2023-04-03T07:56:25;9.25;;;6.82;;
9815;SDS011;4947;44.526;11.360;2023-04-03T07:58:54;9.95;;;6.80;;
9815;SDS011;4947;44.526;11.360;2023-04-03T08:01:21;10.65;;;7.38;;
9815;SDS011;4947;44.526;11.360;2023-04-03T08:03:49;8.65;;;6.35;;
9815;SDS011;4947;44.526;11.360;2023-04-03T08:06:17;12.98;;;7.20;;
9815;SDS011;4947;44.526;11.360;2023-04-03T08:08:44;9.98;;;6.88;;
9815;SDS011;4947;44.526;11.360;2023-04-03T08:11:13;10.85;;;7.65;;
9815;SDS011;4947;44.526;11.360;2023-04-03T08:13:41;9.88;;;6.45;;
9815;SDS011;4947;44.526;11.360;2023-04-03T08:16:11;13.43;;;7.78;;
9815;SDS011;4947;44.526;11.360;2023-04-03T08:18:43;9.60;;;7.25;;
9815;SDS011;4947;44.526;11.360;2023-04-03T08:21:11;8.40;;;7.03;;
9815;SDS011;4947;44.526;11.360;2023-04-03T08:23:40;10.57;;;7.07;;
9815;SDS011;4947;44.526;11.360;2023-04-03T08:26:09;8.73;;;6.55;;
9815;SDS011;4947;44.526;11.360;2023-04-03T08:28:39;8.60;;;6.70;;
9815;SDS011;4947;44.526;11.360;2023-04-03T08:31:09;9.25;;;7.07;;
9815;SDS011;4947;44.526;11.360;2023-04-03T08:33:38;8.82;;;6.22;;
9815;SDS011;4947;44.526;11.360;2023-04-03T08:36:07;8.32;;;7.03;;
9815;SDS011;4947;44.526;11.360;2023-04-03T08:38:44;8.10;;;5.50;;
9815;SDS011;4947;44.526;11.360;2023-04-03T08:41:14;9.07;;;6.15;;
9815;SDS011;4947;44.526;11.360;2023-04-03T08:46:40;9.43;;;6.32;;
9815;SDS011;4947;44.526;11.360;2023-04-03T08:49:18;7.32;;;6.25;;
9815;SDS011;4947;44.526;11.360;2023-04-03T08:51:51;8.77;;;6.47;;
9815;SDS011;4947;44.526;11.360;2023-04-03T08:54:23;13.05;;;7.18;;
9815;SDS011;4947;44.526;11.360;2023-04-03T08:56:54;8.05;;;5.85;;
9815;SDS011;4947;44.526;11.360;2023-04-03T08:59:28;11.55;;;5.78;;
9815;SDS011;4947;44.526;11.360;2023-04-03T09:02:00;8.45;;;5.65;;
9815;SDS011;4947;44.526;11.360;2023-04-03T09:04:32;6.50;;;5.90;;
9815;SDS011;4947;44.526;11.360;2023-04-03T09:07:05;7.28;;;5.43;;
9815;SDS011;4947;44.526;11.360;2023-04-03T09:09:40;7.47;;;5.28;;
9815;SDS011;4947;44.526;11.360;2023-04-03T09:12:12;8.75;;;5.53;;
9815;SDS011;4947;44.526;11.360;2023-04-03T09:14:49;12.40;;;5.18;;
9815;SDS011;4947;44.526;11.360;2023-04-03T09:17:26;9.50;;;4.65;;
9815;SDS011;4947;44.526;11.360;2023-04-03T09:20:07;7.00;;;3.72;;
9815;SDS011;4947;44.526;11.360;2023-04-03T09:22:42;6.20;;;3.88;;
9815;SDS011;4947;44.526;11.360;2023-04-03T09:25:12;7.70;;;4.25;;
9815;SDS011;4947;44.526;11.360;2023-04-03T09:27:42;5.68;;;3.78;;
9815;SDS011;4947;44.526;11.360;2023-04-03T09:30:15;7.53;;;4.85;;
9815;SDS011;4947;44.526;11.360;2023-04-03T09:32:44;5.93;;;4.50;;
9815;SDS011;4947;44.526;11.360;2023-04-03T09:35:19;5.25;;;4.00;;
9815;SDS011;4947;44.526;11.360;2023-04-03T09:37:50;6.28;;;4.07;;
9815;SDS011;4947;44.526;11.360;2023-04-03T09:43:21;8.35;;;4.70;;
9815;SDS011;4947;44.526;11.360;2023-04-03T09:45:53;8.45;;;4.22;;
9815;SDS011;4947;44.526;11.360;2023-04-03T09:48:21;8.43;;;4.97;;
9815;SDS011;4947;44.526;11.360;2023-04-03T09:50:53;6.95;;;4.20;;
9815;SDS011;4947;44.526;11.360;2023-04-03T09:53:28;6.28;;;4.18;;
9815;SDS011;4947;44.526;11.360;2023-04-03T09:55:58;8.35;;;5.10;;
9815;SDS011;4947;44.526;11.360;2023-04-03T09:58:29;7.13;;;5.30;;
9815;SDS011;4947;44.526;11.360;2023-04-03T10:01:01;8.20;;;5.18;;
9815;SDS011;4947;44.526;11.360;2023-04-03T10:03:30;6.25;;;5.13;;
9815;SDS011;4947;44.526;11.360;2023-04-03T10:06:00;6.78;;;5.30;;
9815;SDS011;4947;44.526;11.360;2023-04-03T10:08:29;12.48;;;8.32;;
9815;SDS011;4947;44.526;11.360;2023-04-03T10:11:12;11.63;;;4.30;;
9815;SDS011;4947;44.526;11.360;2023-04-03T10:13:49;7.60;;;4.40;;
9815;SDS011;4947;44.526;11.360;2023-04-03T10:16:21;8.82;;;4.50;;
9815;SDS011;4947;44.526;11.360;2023-04-03T10:19:07;12.10;;;4.53;;
9815;SDS011;4947;44.526;11.360;2023-04-03T10:21:57;8.40;;;4.20;;
9815;SDS011;4947;44.526;11.360;2023-04-03T10:24:28;7.90;;;3.47;;
9815;SDS011;4947;44.526;11.360;2023-04-03T10:27:04;8.57;;;3.88;;
9815;SDS011;4947;44.526;11.360;2023-04-03T10:29:40;7.63;;;3.97;;
9815;SDS011;4947;44.526;11.360;2023-04-03T10:32:18;8.38;;;3.38;;
9815;SDS011;4947;44.526;11.360;2023-04-03T10:34:54;4.25;;;3.08;;
9815;SDS011;4947;44.526;11.360;2023-04-03T10:37:29;3.65;;;2.15;;
9815;SDS011;4947;44.526;11.360;2023-04-03T10:40:02;3.85;;;2.45;;
9815;SDS011;4947;44.526;11.360;2023-04-03T10:42:50;3.22;;;2.00;;
9815;SDS011;4947;44.526;11.360;2023-04-03T10:45:24;5.78;;;2.65;;
9815;SDS011;4947;44.526;11.360;2023-04-03T10:48:00;5.25;;;2.67;;
9815;SDS011;4947;44.526;11.360;2023-04-03T10:50:38;6.20;;;2.47;;
9815;SDS011;4947;44.526;11.360;2023-04-03T10:53:12;5.80;;;2.50;;
9815;SDS011;4947;44.526;11.360;2023-04-03T10:55:50;3.33;;;2.67;;
9815;SDS011;4947;44.526;11.360;2023-04-03T10:58:25;10.50;;;2.78;;
9815;SDS011;4947;44.526;11.360;2023-04-03T11:00:57;3.47;;;1.88;;
9815;SDS011;4947;44.526;11.360;2023-04-03T11:03:34;4.88;;;1.70;;
9815;SDS011;4947;44.526;11.360;2023-04-03T11:06:08;2.70;;;1.70;;
9815;SDS011;4947;44.526;11.360;2023-04-03T11:08:38;4.43;;;1.80;;
9815;SDS011;4947;44.526;11.360;2023-04-03T11:11:11;6.18;;;2.03;;
9815;SDS011;4947;44.526;11.360;2023-04-03T11:13:43;2.25;;;1.55;;
9815;SDS011;4947;44.526;11.360;2023-04-03T11:16:17;3.70;;;1.92;;
9815;SDS011;4947;44.526;11.360;2023-04-03T11:18:49;1.80;;;1.70;;
9815;SDS011;4947;44.526;11.360;2023-04-03T11:21:21;2.50;;;1.60;;
9815;SDS011;4947;44.526;11.360;2023-04-03T11:23:54;3.03;;;1.73;;
9815;SDS011;4947;44.526;11.360;2023-04-03T11:26:24;1.80;;;1.70;;
9815;SDS011;4947;44.526;11.360;2023-04-03T11:28:56;4.97;;;1.77;;
9815;SDS011;4947;44.526;11.360;2023-04-03T11:34:33;2.22;;;1.70;;
9815;SDS011;4947;44.526;11.360;2023-04-03T11:37:05;3.33;;;1.70;;
9815;SDS011;4947;44.526;11.360;2023-04-03T11:39:40;4.07;;;1.98;;
9815;SDS011;4947;44.526;11.360;2023-04-03T11:42:20;5.60;;;2.33;;
9815;SDS011;4947;44.526;11.360;2023-04-03T11:45:00;3.25;;;1.98;;
9815;SDS011;4947;44.526;11.360;2023-04-03T11:47:44;1.60;;;1.50;;
9815;SDS011;4947;44.526;11.360;2023-04-03T11:53:34;6.05;;;1.88;;
9815;SDS011;4947;44.526;11.360;2023-04-03T12:01:49;2.65;;;1.30;;
9815;SDS011;4947;44.526;11.360;2023-04-03T12:04:22;2.20;;;1.63;;
9815;SDS011;4947;44.526;11.360;2023-04-03T12:06:53;2.53;;;1.40;;
9815;SDS011;4947;44.526;11.360;2023-04-03T12:09:56;1.63;;;1.42;;
9815;SDS011;4947;44.526;11.360;2023-04-03T12:12:28;2.28;;;1.40;;
9815;SDS011;4947;44.526;11.360;2023-04-03T12:15:11;2.67;;;1.40;;
9815;SDS011;4947;44.526;11.360;2023-04-03T12:17:47;2.45;;;1.38;;
9815;SDS011;4947;44.526;11.360;2023-04-03T12:23:24;1.92;;;1.67;;
9815;SDS011;4947;44.526;11.360;2023-04-03T12:26:01;3.90;;;1.65;;
9815;SDS011;4947;44.526;11.360;2023-04-03T12:28:40;4.78;;;1.90;;
9815;SDS011;4947;44.526;11.360;2023-04-03T12:31:09;1.20;;;1.20;;
9815;SDS011;4947;44.526;11.360;2023-04-03T12:33:42;2.10;;;1.33;;
9815;SDS011;4947;44.526;11.360;2023-04-03T12:36:26;2.92;;;1.52;;
9815;SDS011;4947;44.526;11.360;2023-04-03T12:39:11;4.25;;;1.48;;
9815;SDS011;4947;44.526;11.360;2023-04-03T12:42:04;2.08;;;1.40;;
9815;SDS011;4947;44.526;11.360;2023-04-03T12:44:46;3.78;;;1.50;;
9815;SDS011;4947;44.526;11.360;2023-04-03T12:47:25;1.73;;;1.52;;
9815;SDS011;4947;44.526;11.360;2023-04-03T12:49:57;2.67;;;1.73;;
9815;SDS011;4947;44.526;11.360;2023-04-03T12:52:37;1.98;;;1.52;;
9815;SDS011;4947;44.526;11.360;2023-04-03T12:55:14;1.75;;;1.50;;
9815;SDS011;4947;44.526;11.360;2023-04-03T12:57:43;1.60;;;1.50;;
9815;SDS011;4947;44.526;11.360;2023-04-03T13:00:18;5.22;;;1.73;;
9815;SDS011;4947;44.526;11.360;2023-04-03T13:02:47;1.33;;;1.23;;
9815;SDS011;4947;44.526;11.360;2023-04-03T13:05:16;3.35;;;1.40;;
9815;SDS011;4947;44.526;11.360;2023-04-03T13:07:47;1.70;;;1.30;;
9815;SDS011;4947;44.526;11.360;2023-04-03T13:10:16;2.80;;;1.70;;
9815;SDS011;4947;44.526;11.360;2023-04-03T13:12:47;1.35;;;1.20;;
9815;SDS011;4947;44.526;11.360;2023-04-03T13:15:17;1.83;;;1.45;;
9815;SDS011;4947;44.526;11.360;2023-04-03T13:17:48;2.85;;;1.38;;
9815;SDS011;4947;44.526;11.360;2023-04-03T13:20:20;3.63;;;1.40;;
9815;SDS011;4947;44.526;11.360;2023-04-03T13:22:51;2.63;;;1.42;;
9815;SDS011;4947;44.526;11.360;2023-04-03T13:25:23;2.95;;;1.50;;
9815;SDS011;4947;44.526;11.360;2023-04-03T13:27:54;4.45;;;1.67;;
9815;SDS011;4947;44.526;11.360;2023-04-03T13:30:27;1.55;;;1.45;;
9815;SDS011;4947;44.526;11.360;2023-04-03T13:32:57;3.10;;;1.50;;
9815;SDS011;4947;44.526;11.360;2023-04-03T13:35:34;2.47;;;1.58;;
9815;SDS011;4947;44.526;11.360;2023-04-03T13:38:04;3.20;;;1.65;;
9815;SDS011;4947;44.526;11.360;2023-04-03T13:40:35;1.73;;;1.40;;
9815;SDS011;4947;44.526;11.360;2023-04-03T13:43:19;2.55;;;1.50;;
9815;SDS011;4947;44.526;11.360;2023-04-03T13:46:00;2.95;;;1.40;;
9815;SDS011;4947;44.526;11.360;2023-04-03T13:48:35;1.35;;;1.20;;
9815;SDS011;4947;44.526;11.360;2023-04-03T13:51:06;4.80;;;1.77;;
9815;SDS011;4947;44.526;11.360;2023-04-03T13:53:45;2.65;;;1.75;;
9815;SDS011;4947;44.526;11.360;2023-04-03T13:56:17;5.55;;;1.55;;
9815;SDS011;4947;44.526;11.360;2023-04-03T14:01:53;1.55;;;1.38;;
9815;SDS011;4947;44.526;11.360;2023-04-03T14:04:43;2.60;;;1.67;;
9815;SDS011;4947;44.526;11.360;2023-04-03T14:07:15;3.85;;;1.52;;
9815;SDS011;4947;44.526;11.360;2023-04-03T14:09:46;1.80;;;1.60;;
9815;SDS011;4947;44.526;11.360;2023-04-03T14:12:15;1.33;;;1.23;;
9815;SDS011;4947;44.526;11.360;2023-04-03T14:14:46;1.35;;;1.25;;
9815;SDS011;4947;44.526;11.360;2023-04-03T14:17:15;2.90;;;1.45;;
9815;SDS011;4947;44.526;11.360;2023-04-03T14:19:44;2.08;;;1.40;;
9815;SDS011;4947;44.526;11.360;2023-04-03T14:22:14;2.67;;;1.35;;
9815;SDS011;4947;44.526;11.360;2023-04-03T14:24:43;3.40;;;2.13;;
9815;SDS011;4947;44.526;11.360;2023-04-03T14:27:13;1.60;;;1.40;;
9815;SDS011;4947;44.526;11.360;2023-04-03T14:29:45;3.15;;;1.33;;
9815;SDS011;4947;44.526;11.360;2023-04-03T14:32:14;1.48;;;1.38;;
9815;SDS011;4947;44.526;11.360;2023-04-03T14:34:46;7.05;;;1.60;;
9815;SDS011;4947;44.526;11.360;2023-04-03T14:37:16;1.40;;;1.30;;
9815;SDS011;4947;44.526;11.360;2023-04-03T14:39:45;5.43;;;1.65;;
9815;SDS011;4947;44.526;11.360;2023-04-03T14:42:15;8.95;;;1.58;;
9815;SDS011;4947;44.526;11.360;2023-04-03T14:44:45;3.05;;;1.45;;
9815;SDS011;4947;44.526;11.360;2023-04-03T14:47:14;4.82;;;1.70;;
9815;SDS011;4947;44.526;11.360;2023-04-03T14:49:43;4.18;;;1.48;;
9815;SDS011;4947;44.526;11.360;2023-04-03T14:52:16;4.22;;;1.35;;
9815;SDS011;4947;44.526;11.360;2023-04-03T14:54:46;1.75;;;1.65;;
9815;SDS011;4947;44.526;11.360;2023-04-03T14:57:14;1.75;;;1.50;;
9815;SDS011;4947;44.526;11.360;2023-04-03T14:59:45;2.92;;;1.60;;
9815;SDS011;4947;44.526;11.360;2023-04-03T15:02:24;3.08;;;1.80;;
9815;SDS011;4947;44.526;11.360;2023-04-03T15:04:57;2.65;;;1.40;;
9815;SDS011;4947;44.526;11.360;2023-04-03T15:07:26;2.03;;;1.60;;
9815;SDS011;4947;44.526;11.360;2023-04-03T15:09:55;1.30;;;1.20;;
9815;SDS011;4947;44.526;11.360;2023-04-03T15:12:23;3.47;;;1.45;;
9815;SDS011;4947;44.526;11.360;2023-04-03T15:14:53;2.53;;;1.58;;
9815;SDS011;4947;44.526;11.360;2023-04-03T15:17:21;2.65;;;1.40;;
9815;SDS011;4947;44.526;11.360;2023-04-03T15:19:50;1.67;;;1.33;;
9815;SDS011;4947;44.526;11.360;2023-04-03T15:22:23;4.13;;;1.80;;
9815;SDS011;4947;44.526;11.360;2023-04-03T15:24:50;2.25;;;1.40;;
9815;SDS011;4947;44.526;11.360;2023-04-03T15:27:18;3.25;;;1.65;;
9815;SDS011;4947;44.526;11.360;2023-04-03T15:29:46;1.98;;;1.58;;
9815;SDS011;4947;44.526;11.360;2023-04-03T15:32:15;1.42;;;1.33;;
9815;SDS011;4947;44.526;11.360;2023-04-03T15:34:42;1.40;;;1.15;;
9815;SDS011;4947;44.526;11.360;2023-04-03T15:37:10;1.42;;;1.33;;
9815;SDS011;4947;44.526;11.360;2023-04-03T15:39:37;1.40;;;1.30;;
9815;SDS011;4947;44.526;11.360;2023-04-03T15:42:05;2.63;;;1.20;;
9815;SDS011;4947;44.526;11.360;2023-04-03T15:44:32;1.98;;;1.35;;
9815;SDS011;4947;44.526;11.360;2023-04-03T15:47:00;1.45;;;1.33;;
9815;SDS011;4947;44.526;11.360;2023-04-03T15:49:31;1.67;;;1.50;;